16:16
Airports
Links
Donate
Help keep this website running!
PayPal
Bitcoin
METAR
KSGF 241552Z 14011KT 10SM OVC004 11/11 A2981 RMK AO2 SLP096 T01110106
Current Weather Conditions at KSGF
LIFR 15:52:00 24-02-18
Automated station
Altimeter:29.81 hg
Temp:11.1°c 52°f
Dew point:10.6°c 50°f
Wind:11 knots, 12.7 mph, 6 m/s, from 140°
Visibility:10.0 statute miles
400(OVC) Overcast
Past METAR reports
LIFR 15:38:00 24-02-18
Automated station
Altimeter:29.83 hg
Temp:10.6°c 50°f
Dew point:10.0°c 50°f
Wind:12 knots, 13.8 mph, 6 m/s, from 150°
Visibility:10.0 statute miles
400(OVC) Overcast
KSGF 241538Z 15012KT 10SM OVC004 11/10 A2983 RMK AO2 T01060100
IFR 14:52:00 24-02-18
Automated station
Altimeter:29.88 hg
Temp:10.0°c 50°f
Dew point:9.4°c 48°f
Wind:10 knots, 11.5 mph, 5 m/s, from 140°
Visibility:10.0 statute miles
500(OVC) Overcast
KSGF 241452Z 14010KT 10SM OVC005 10/09 A2988 RMK AO2 SLP118 T01000094 58013
IFR 13:52:00 24-02-18
Automated station
Altimeter:29.92 hg
Temp:9.4°c 48°f
Dew point:8.9°c 46°f
Wind:6 knots, 6.9 mph, 3 m/s, from 150°
Visibility:10.0 statute miles
500(OVC) Overcast
KSGF 241352Z 15006KT 10SM OVC005 09/09 A2992 RMK AO2 SLP132 T00940089
IFR 13:07:00 24-02-18
Automated station
Altimeter:29.91 hg
Temp:9.4°c 48°f
Dew point:8.9°c 46°f
Wind:6 knots, 6.9 mph, 3 m/s, from 160°
Visibility:10.0 statute miles
1000(OVC) Overcast
500(BKN) Broken
KSGF 241307Z 16006KT 10SM BKN005 OVC010 09/09 A2991 RMK AO2 T00940089
MVFR 12:52:00 24-02-18
Automated station
Altimeter:29.92 hg
Temp:9.4°c 48°f
Dew point:8.9°c 46°f
Wind:5 knots, 5.8 mph, 3 m/s, from 170°
Visibility:10.0 statute miles
1100(OVC) Overcast
500(SCT) Scattered
KSGF 241252Z 17005KT 10SM SCT005 OVC011 09/09 A2992 RMK AO2 SLP132 T00940089
MVFR 12:48:00 24-02-18
Automated station
Altimeter:29.91 hg
Temp:9.0°c 48°f
Dew point:9.0°c 48°f
Wind:9 knots, 10.4 mph, 5 m/s, from 140°
Visibility:10.0 statute miles
1100(OVC) Overcast
500(SCT) Scattered
KSGF 241248Z 14009KT 10SM SCT005 OVC011 09/09 A2991 RMK AO2
TAF
KSGF 241334Z 2414/2512 15008KT P6SM VCSH OVC005 FM241700 16007KT P6SM -SHRA OVC008 FM241900 16008KT 2SM SHRA VCTS OVC010CB FM242300 27013G25KT P6SM OVC008 FM250400 28012G21KT P6SM BKN100
Forecast at KSGF
14:00 24-02-18 to 17:00 24-02-18
VCSH
Wind:8 Knots from 150°
Visibility:6.21 statute miles
500OVC Overcast
FM 17:00 24-02-18 to 19:00 24-02-18
-SHRA
Wind:7 Knots from 160°
Visibility:6.21 statute miles
800OVC Overcast
FM 19:00 24-02-18 to 23:00 24-02-18
SHRA VCTS
Wind:8 Knots from 160°
Visibility:2.0 statute miles
1000OVC Overcast
FM 23:00 24-02-18 to 04:00 25-02-18
Wind:13 Knots from 270°
Visibility:6.21 statute miles
800OVC Overcast
FM 04:00 25-02-18 to 12:00 25-02-18
Wind:12 Knots from 280°
Visibility:6.21 statute miles
10000BKN Broken